Time;durP1;ratioP1;P1;durP2;ratioP2;P2;SDS_P1;SDS_P2;PMS_P1;PMS_P2;Temp;Humidity;BMP_temperature;BMP_pressure;BME280_temperature;BME280_humidity;BME280_pressure;Samples;Min_cycle;Max_cycle;Signal;HPM_P1;HPM_P2
2022/07/27 00:00:54;;;;;;;3.65;1.83;;;22.20;85.90;;;;;;5053437;28;20032;-61
2022/07/27 00:03:22;;;;;;;2.10;1.70;;;22.10;86.30;;;;;;5053083;28;20036;-61
2022/07/27 00:05:47;;;;;;;2.70;1.50;;;22.00;86.70;;;;;;5053324;28;20107;-62
2022/07/27 00:08:13;;;;;;;5.40;1.75;;;22.00;87.10;;;;;;5053071;28;20060;-62
2022/07/27 00:10:39;;;;;;;7.75;1.60;;;21.90;87.50;;;;;;5052898;28;20037;-62
2022/07/27 00:13:05;;;;;;;2.47;1.60;;;21.90;87.80;;;;;;5053570;28;20043;-61
2022/07/27 00:15:31;;;;;;;;;;;21.90;87.90;;;;;;5053603;28;20040;-61
2022/07/27 00:17:59;;;;;;;3.80;1.90;;;21.90;88.00;;;;;;5053127;28;19912;-61
2022/07/27 00:20:26;;;;;;;3.03;1.73;;;21.90;88.10;;;;;;5052834;28;20036;-59
2022/07/27 00:22:52;;;;;;;3.83;1.70;;;21.90;89.10;;;;;;5053080;28;20025;-61
2022/07/27 00:25:17;;;;;;;2.50;1.80;;;21.90;88.60;;;;;;5051803;28;20084;-61
2022/07/27 00:27:43;;;;;;;3.20;1.65;;;21.90;88.70;;;;;;5053086;28;20393;-61
2022/07/27 00:30:09;;;;;;;3.03;1.50;;;21.90;88.80;;;;;;5052887;28;20104;-61
2022/07/27 00:32:34;;;;;;;2.58;1.80;;;21.90;89.20;;;;;;5052849;28;20036;-61
2022/07/27 00:35:00;;;;;;;2.08;1.40;;;21.80;89.20;;;;;;5052701;28;20023;-60
2022/07/27 00:37:25;;;;;;;3.20;1.70;;;21.80;89.40;;;;;;5052665;28;20037;-60
2022/07/27 00:39:53;;;;;;;2.28;1.60;;;21.90;89.50;;;;;;5052616;28;20481;-59
2022/07/27 00:42:25;;;;;;;2.47;1.65;;;22.10;89.20;;;;;;5052692;28;20021;-61
2022/07/27 00:44:51;;;;;;;3.47;1.75;;;22.00;89.60;;;;;;5052667;28;20020;-62
2022/07/27 00:47:16;;;;;;;5.68;1.70;;;21.90;89.50;;;;;;5052526;28;20507;-60
2022/07/27 00:49:42;;;;;;;4.00;2.13;;;21.90;90.00;;;;;;5052502;28;20029;-61
2022/07/27 00:52:08;;;;;;;3.42;1.70;;;21.70;90.20;;;;;;5056809;28;20032;-59
2022/07/27 00:54:33;;;;;;;4.13;1.70;;;21.70;90.30;;;;;;5057007;28;20033;-62
2022/07/27 00:56:59;;;;;;;3.22;1.90;;;21.60;90.70;;;;;;5058412;28;20108;-59
2022/07/27 00:59:25;;;;;;;2.33;1.60;;;21.60;90.80;;;;;;5057438;28;20044;-61
2022/07/27 01:01:51;;;;;;;2.97;2.08;;;21.60;90.80;;;;;;5056059;28;20112;-60
2022/07/27 01:04:16;;;;;;;5.82;1.88;;;21.60;90.90;;;;;;5059348;28;20084;-61
2022/07/27 01:06:42;;;;;;;1.58;1.45;;;21.70;90.80;;;;;;5055431;28;20055;-61
2022/07/27 01:11:51;;;;;;;2.00;1.50;;;21.80;91.00;;;;;;5055981;28;20374;-61
2022/07/27 01:14:17;;;;;;;3.03;1.58;;;21.90;90.80;;;;;;5055914;28;20018;-59
2022/07/27 01:16:43;;;;;;;3.53;1.40;;;21.90;90.80;;;;;;5056008;28;20397;-60
2022/07/27 01:19:09;;;;;;;2.22;1.40;;;21.80;90.90;;;;;;5054469;28;20466;-61
2022/07/27 01:21:36;;;;;;;1.65;1.40;;;21.80;91.00;;;;;;5054550;28;20132;-61
2022/07/27 01:24:02;;;;;;;2.25;1.50;;;21.80;91.20;;;;;;5055997;28;20385;-61
2022/07/27 01:26:28;;;;;;;2.33;1.50;;;21.70;91.40;;;;;;5056469;28;20025;-61
2022/07/27 01:28:58;;;;;;;2.17;1.20;;;21.60;91.60;;;;;;5056514;28;20056;-62
2022/07/27 01:31:24;;;;;;;3.05;1.30;;;21.60;91.70;;;;;;5056369;28;20036;-57
2022/07/27 01:33:49;;;;;;;1.95;1.40;;;21.60;91.70;;;;;;5056457;28;20440;-60
2022/07/27 01:36:15;;;;;;;4.13;1.60;;;21.60;91.80;;;;;;5055973;28;20063;-60
2022/07/27 01:38:41;;;;;;;3.45;1.55;;;21.60;91.90;;;;;;5055744;28;20486;-61
2022/07/27 01:41:07;;;;;;;2.15;1.27;;;21.50;92.40;;;;;;5056171;28;20032;-62
2022/07/27 01:43:32;;;;;;;2.28;1.40;;;21.50;92.10;;;;;;5055862;28;20531;-61
2022/07/27 01:45:58;;;;;;;1.58;1.48;;;21.40;92.20;;;;;;5055499;28;20033;-60
2022/07/27 01:48:24;;;;;;;2.58;1.50;;;21.50;92.20;;;;;;5055539;28;20033;-61
2022/07/27 01:50:50;;;;;;;;;;;21.50;92.20;;;;;;5055696;28;20059;-61
2022/07/27 01:53:16;;;;;;;4.93;1.85;;;21.50;92.30;;;;;;5055704;28;19912;-61
2022/07/27 01:55:41;;;;;;;1.73;1.23;;;21.50;92.30;;;;;;5054065;28;20390;-62
2022/07/27 01:58:07;;;;;;;2.47;1.30;;;21.50;92.10;;;;;;5055193;28;20547;-62
2022/07/27 02:00:33;;;;;;;2.20;1.33;;;21.50;92.10;;;;;;5054928;28;20096;-62
2022/07/27 02:02:59;;;;;;;1.95;1.33;;;21.40;92.30;;;;;;5055100;28;20108;-62
2022/07/27 02:05:25;;;;;;;3.40;1.30;;;21.40;92.40;;;;;;5055291;28;20028;-60
2022/07/27 02:07:50;;;;;;;2.92;1.35;;;21.40;92.30;;;;;;5055218;28;20099;-61
2022/07/27 02:10:16;;;;;;;2.75;1.67;;;21.30;92.30;;;;;;5055310;28;20060;-62
2022/07/27 02:12:42;;;;;;;2.78;1.30;;;21.20;92.30;;;;;;5054888;28;20052;-63
2022/07/27 02:15:13;;;;;;;2.30;1.20;;;21.20;92.40;;;;;;5055076;28;20456;-63
2022/07/27 02:17:39;;;;;;;1.67;1.20;;;21.20;92.50;;;;;;5054993;28;20053;-63
2022/07/27 02:20:07;;;;;;;1.60;1.23;;;21.20;92.40;;;;;;5054893;28;20130;-63
2022/07/27 02:22:33;;;;;;;3.28;1.85;;;21.30;92.30;;;;;;5054818;28;20033;-64
2022/07/27 02:24:59;;;;;;;3.85;1.50;;;21.30;92.30;;;;;;5054788;28;20070;-63
2022/07/27 02:27:25;;;;;;;2.85;1.40;;;21.20;92.20;;;;;;5054737;28;20033;-63
2022/07/27 02:29:51;;;;;;;3.08;1.48;;;21.10;92.30;;;;;;5054427;28;20549;-61
2022/07/27 02:32:17;;;;;;;2.45;1.27;;;21.00;92.40;;;;;;5054431;28;20025;-63
2022/07/27 02:34:43;;;;;;;1.65;1.20;;;21.00;92.60;;;;;;5054566;28;20025;-62
2022/07/27 02:37:08;;;;;;;1.77;1.20;;;21.00;92.70;;;;;;5054449;28;20056;-63
2022/07/27 02:39:34;;;;;;;2.65;1.20;;;20.90;92.80;;;;;;5052813;28;20040;-62
2022/07/27 02:42:01;;;;;;;2.00;1.30;;;20.90;93.00;;;;;;5054496;28;20053;-63
2022/07/27 02:44:46;;;;;;;1.70;1.23;;;20.90;92.90;;;;;;5052564;28;20041;-63
2022/07/27 02:47:11;;;;;;;3.65;1.35;;;21.00;93.10;;;;;;5052326;28;20039;-62
2022/07/27 02:49:37;;;;;;;2.90;1.35;;;21.00;93.00;;;;;;5052740;28;20065;-61
2022/07/27 02:52:04;;;;;;;2.85;1.17;;;21.00;92.90;;;;;;5051993;28;20025;-62
2022/07/27 02:54:31;;;;;;;2.35;1.65;;;21.00;92.90;;;;;;5051960;28;20029;-62
2022/07/27 02:56:58;;;;;;;2.95;1.38;;;21.00;92.90;;;;;;5052088;28;20029;-63
2022/07/27 02:59:23;;;;;;;3.95;1.20;;;20.90;93.20;;;;;;5052470;28;20045;-62
2022/07/27 03:01:49;;;;;;;3.60;1.45;;;20.80;93.50;;;;;;5052688;28;20033;-62
2022/07/27 03:04:15;;;;;;;2.65;1.40;;;20.70;93.80;;;;;;5052213;28;20056;-64
2022/07/27 03:06:41;;;;;;;2.97;1.23;;;20.80;93.60;;;;;;5051995;28;20574;-63
2022/07/27 03:09:07;;;;;;;1.63;1.27;;;20.90;93.70;;;;;;5051874;28;20068;-63
2022/07/27 03:11:33;;;;;;;2.42;1.40;;;20.90;93.70;;;;;;5051870;28;20068;-63
2022/07/27 03:13:58;;;;;;;2.75;1.38;;;20.80;93.80;;;;;;5051170;28;20072;-63
2022/07/27 03:16:24;;;;;;;3.45;1.30;;;20.80;93.90;;;;;;5053296;28;20040;-63
2022/07/27 03:18:50;;;;;;;1.98;1.40;;;20.80;94.00;;;;;;5053736;28;20516;-62
2022/07/27 03:21:15;;;;;;;3.65;1.67;;;20.80;94.20;;;;;;5053383;28;20033;-61
2022/07/27 03:23:41;;;;;;;1.88;1.20;;;20.70;94.50;;;;;;5053519;28;20029;-62
2022/07/27 03:26:07;;;;;;;2.08;1.30;;;20.60;94.60;;;;;;5052068;28;20105;-62
2022/07/27 03:28:32;;;;;;;5.00;1.30;;;20.60;94.80;;;;;;5053088;28;20029;-62
2022/07/27 03:30:58;;;;;;;2.00;1.30;;;20.70;94.60;;;;;;5053235;28;20477;-62
2022/07/27 03:33:24;;;;;;;1.63;1.20;;;20.70;94.70;;;;;;5053208;28;20025;-62
2022/07/27 03:35:49;;;;;;;1.88;1.48;;;20.70;94.60;;;;;;5053311;28;20029;-62
2022/07/27 03:38:15;;;;;;;1.77;1.20;;;20.70;94.70;;;;;;5053270;28;20032;-63
2022/07/27 03:40:41;;;;;;;2.90;1.20;;;20.70;94.80;;;;;;5053102;28;20025;-62
2022/07/27 03:43:07;;;;;;;1.75;1.35;;;20.70;94.70;;;;;;5053351;28;20482;-63
2022/07/27 03:45:32;;;;;;;3.20;1.40;;;20.70;94.80;;;;;;5053097;28;20155;-63
2022/07/27 03:47:59;;;;;;;4.40;1.65;;;20.70;95.00;;;;;;5052927;28;20478;-60
2022/07/27 03:50:24;;;;;;;;;;;20.70;94.80;;;;;;5053295;28;20017;-57
2022/07/27 03:52:50;;;;;;;2.95;1.33;;;20.60;94.90;;;;;;5052746;28;19984;-61
2022/07/27 03:55:16;;;;;;;1.85;1.40;;;20.60;95.10;;;;;;5053092;28;20033;-60
2022/07/27 03:57:42;;;;;;;2.22;1.35;;;20.40;95.30;;;;;;5052998;28;20030;-61
2022/07/27 04:00:11;;;;;;;3.08;1.38;;;20.30;95.50;;;;;;5053636;28;20033;-59
2022/07/27 04:02:37;;;;;;;2.53;1.40;;;20.30;95.70;;;;;;5052847;28;20402;-61
2022/07/27 04:05:03;;;;;;;2.88;1.45;;;20.20;96.10;;;;;;5052899;28;20048;-58
2022/07/27 04:07:28;;;;;;;3.13;1.73;;;20.30;96.30;;;;;;5053375;28;20071;-60
2022/07/27 04:09:54;;;;;;;1.75;1.38;;;20.40;96.00;;;;;;5052616;28;20100;-59
2022/07/27 04:12:20;;;;;;;1.88;1.38;;;20.30;96.00;;;;;;5052814;28;20028;-61
2022/07/27 04:14:45;;;;;;;2.80;1.73;;;20.30;96.20;;;;;;5053077;28;20400;-60
2022/07/27 04:17:11;;;;;;;2.45;1.20;;;20.40;96.30;;;;;;5053505;28;20035;-60
2022/07/27 04:19:36;;;;;;;3.15;1.52;;;20.40;96.40;;;;;;5053336;28;20033;-62
2022/07/27 04:22:02;;;;;;;3.50;1.80;;;20.30;96.70;;;;;;5052909;28;20428;-60
2022/07/27 04:24:28;;;;;;;6.47;1.20;;;20.20;97.00;;;;;;5054049;28;20385;-61
2022/07/27 04:26:54;;;;;;;1.70;1.38;;;20.30;97.00;;;;;;5057085;28;20021;-61
2022/07/27 04:29:20;;;;;;;3.30;1.60;;;20.30;97.20;;;;;;5056693;28;20033;-60
2022/07/27 04:31:45;;;;;;;2.53;1.63;;;20.30;97.30;;;;;;5057016;28;20025;-60
2022/07/27 04:34:11;;;;;;;3.47;1.35;;;20.20;97.40;;;;;;5056574;28;20484;-61
2022/07/27 04:36:37;;;;;;;1.98;1.40;;;20.10;97.50;;;;;;5057995;28;20032;-60
2022/07/27 04:39:03;;;;;;;2.00;1.60;;;20.10;97.90;;;;;;5057689;28;20108;-62
2022/07/27 04:41:29;;;;;;;2.55;1.23;;;20.10;98.00;;;;;;5057016;28;20434;-64
2022/07/27 04:43:55;;;;;;;3.42;1.48;;;20.10;98.00;;;;;;5057568;28;20025;-63
2022/07/27 04:46:20;;;;;;;3.95;1.00;;;20.10;97.90;;;;;;5056899;28;20080;-64
2022/07/27 04:48:46;;;;;;;3.08;1.40;;;20.10;97.90;;;;;;5057244;28;20056;-63
2022/07/27 04:51:15;;;;;;;2.47;1.20;;;20.10;98.10;;;;;;5058696;28;20362;-63
2022/07/27 04:53:41;;;;;;;2.22;1.50;;;20.00;98.30;;;;;;5059489;28;20105;-64
2022/07/27 04:56:07;;;;;;;1.90;1.30;;;20.10;98.40;;;;;;5058270;28;20080;-62
2022/07/27 04:58:33;;;;;;;1.75;1.13;;;20.10;98.30;;;;;;5056935;28;20397;-64
2022/07/27 05:00:58;;;;;;;2.40;1.30;;;20.10;98.30;;;;;;5057761;28;20029;-64
2022/07/27 05:03:24;;;;;;;1.58;1.00;;;20.10;98.50;;;;;;5056605;28;20482;-64
2022/07/27 05:05:49;;;;;;;1.77;1.13;;;20.10;98.60;;;;;;5056309;28;20091;-61
2022/07/27 05:08:15;;;;;;;2.38;1.17;;;20.00;98.80;;;;;;5056374;28;20033;-61
2022/07/27 05:10:41;;;;;;;2.33;1.25;;;19.90;99.10;;;;;;5056086;28;20033;-62
2022/07/27 05:13:06;;;;;;;1.95;1.10;;;19.90;99.40;;;;;;5056850;28;20382;-62
2022/07/27 05:15:32;;;;;;;1.92;1.02;;;19.90;99.50;;;;;;5056674;28;20072;-58
2022/07/27 05:17:57;;;;;;;1.67;1.08;;;19.90;99.70;;;;;;5056888;28;20404;-61
2022/07/27 05:20:24;;;;;;;2.80;0.80;;;20.20;99.70;;;;;;5056506;28;20436;-61
2022/07/27 05:22:50;;;;;;;2.90;1.48;;;20.20;99.20;;;;;;5055139;28;20112;-61
2022/07/27 05:25:15;;;;;;;3.22;0.82;;;20.30;99.10;;;;;;5054819;28;20028;-60
2022/07/27 05:27:41;;;;;;;1.88;1.30;;;20.40;98.90;;;;;;5056147;28;20033;-61
2022/07/27 05:30:08;;;;;;;4.65;1.08;;;20.50;98.80;;;;;;5056080;28;20082;-60
2022/07/27 05:32:34;;;;;;;2.95;1.08;;;20.30;98.70;;;;;;5056241;28;20021;-59
2022/07/27 05:34:59;;;;;;;2.42;1.13;;;20.20;99.10;;;;;;5056194;28;20381;-60
2022/07/27 05:37:25;;;;;;;2.03;1.10;;;20.20;99.30;;;;;;5055193;28;20078;-60
2022/07/27 05:39:50;;;;;;;2.15;1.10;;;20.10;99.50;;;;;;5055616;28;20032;-59
2022/07/27 05:42:16;;;;;;;1.35;1.08;;;20.10;99.80;;;;;;5055216;28;20093;-59
2022/07/27 05:44:41;;;;;;;3.15;0.98;;;20.10;99.70;;;;;;5055630;28;20036;-57
2022/07/27 05:47:07;;;;;;;1.95;1.02;;;20.10;99.80;;;;;;5056215;28;20036;-60
2022/07/27 05:49:33;;;;;;;2.95;1.00;;;20.30;99.70;;;;;;5054840;28;20035;-60
2022/07/27 05:51:58;;;;;;;3.60;1.10;;;20.30;99.30;;;;;;5056259;28;20030;-59
2022/07/27 05:54:24;;;;;;;1.58;0.90;;;20.30;99.20;;;;;;5057007;28;20465;-60
2022/07/27 05:56:51;;;;;;;4.93;1.48;;;20.40;99.30;;;;;;5057047;28;20029;-59
2022/07/27 05:59:16;;;;;;;1.58;0.90;;;20.40;99.30;;;;;;5058508;28;20482;-60
2022/07/27 06:01:42;;;;;;;1.73;1.15;;;20.50;99.10;;;;;;5057655;28;20040;-60
2022/07/27 06:04:07;;;;;;;6.00;1.40;;;20.40;99.40;;;;;;5056875;28;20131;-57
2022/07/27 06:09:17;;;;;;;2.55;1.48;;;20.30;99.60;;;;;;5056116;28;20071;-61
2022/07/27 06:11:42;;;;;;;2.75;0.95;;;20.30;99.80;;;;;;5056314;28;20033;-60
2022/07/27 06:14:08;;;;;;;2.20;1.00;;;20.30;99.70;;;;;;5056788;28;20021;-60
2022/07/27 06:16:34;;;;;;;3.33;1.42;;;20.40;99.70;;;;;;5056551;28;20021;-61
2022/07/27 06:19:00;;;;;;;2.30;1.20;;;20.60;99.50;;;;;;5057277;28;20107;-60
2022/07/27 06:21:27;;;;;;;3.47;1.02;;;20.80;99.00;;;;;;5055557;28;20027;-60
2022/07/27 06:23:55;;;;;;;1.88;0.90;;;21.00;98.40;;;;;;5056187;28;20434;-59
2022/07/27 06:26:21;;;;;;;4.97;1.23;;;21.20;98.00;;;;;;5055908;28;20143;-61
2022/07/27 06:28:47;;;;;;;2.08;1.27;;;21.30;97.80;;;;;;5055432;28;20075;-60
2022/07/27 06:31:13;;;;;;;2.65;0.95;;;21.40;97.50;;;;;;5056565;28;20025;-60
2022/07/27 06:33:40;;;;;;;1.80;1.50;;;21.50;97.20;;;;;;5055690;28;20067;-61
2022/07/27 06:36:07;;;;;;;2.97;1.42;;;21.50;97.10;;;;;;5054908;28;20067;-62
2022/07/27 06:38:33;;;;;;;3.92;0.90;;;21.60;96.80;;;;;;5054461;28;20560;-60
2022/07/27 06:40:59;;;;;;;9.45;1.30;;;21.60;96.60;;;;;;5054475;28;20033;-60
2022/07/27 06:43:29;;;;;;;2.08;1.10;;;21.50;96.70;;;;;;5054529;28;20114;-61
2022/07/27 06:45:57;;;;;;;3.25;1.17;;;21.50;96.70;;;;;;5054508;28;20454;-61
2022/07/27 06:48:23;;;;;;;2.67;0.95;;;21.50;96.80;;;;;;5053379;28;20029;-60
2022/07/27 06:50:50;;;;;;;3.40;1.05;;;21.40;96.80;;;;;;5054280;28;20028;-61
2022/07/27 06:53:16;;;;;;;3.05;1.10;;;21.40;97.00;;;;;;5054349;28;20600;-61
2022/07/27 06:55:41;;;;;;;4.85;1.67;;;21.40;97.20;;;;;;5052479;28;20112;-60
2022/07/27 06:58:07;;;;;;;1.48;0.98;;;21.50;97.10;;;;;;5054086;28;20052;-62
2022/07/27 07:00:33;;;;;;;3.00;0.90;;;21.70;97.00;;;;;;5053821;28;20053;-61
2022/07/27 07:03:03;;;;;;;2.60;0.90;;;22.00;96.00;;;;;;5054204;28;20083;-60
2022/07/27 07:05:30;;;;;;;2.00;1.02;;;22.30;95.40;;;;;;5054094;28;20033;-64
2022/07/27 07:07:56;;;;;;;3.50;1.00;;;22.40;95.00;;;;;;5053869;28;20021;-59
2022/07/27 07:10:22;;;;;;;2.58;1.20;;;22.40;94.70;;;;;;5053652;28;20456;-58
2022/07/27 07:12:48;;;;;;;1.77;0.70;;;22.50;94.50;;;;;;5054100;28;20440;-62
2022/07/27 07:15:15;;;;;;;2.75;1.30;;;22.60;94.30;;;;;;5053821;28;20017;-59
2022/07/27 07:17:41;;;;;;;1.63;0.90;;;22.50;94.30;;;;;;5053491;28;20028;-60
2022/07/27 07:20:07;;;;;;;;;;;22.70;94.10;;;;;;5054325;28;20029;-60
2022/07/27 07:22:33;;;;;;;1.08;0.70;;;22.80;93.90;;;;;;5053628;28;19966;-59
2022/07/27 07:24:59;;;;;;;;;;;23.00;93.80;;;;;;5053986;28;20029;-61
2022/07/27 07:27:24;;;;;;;1.70;0.77;;;23.10;93.50;;;;;;5053825;28;19999;-59
2022/07/27 07:29:50;;;;;;;2.65;0.93;;;23.20;93.20;;;;;;5053281;28;20143;-61
2022/07/27 07:32:15;;;;;;;2.15;0.80;;;23.10;93.20;;;;;;5053452;28;20454;-61
2022/07/27 07:34:41;;;;;;;;;;;23.10;93.30;;;;;;5052824;28;20435;-60
2022/07/27 07:37:07;;;;;;;1.92;0.68;;;23.00;93.20;;;;;;5054211;28;19995;-61
2022/07/27 07:39:33;;;;;;;;;;;23.00;93.20;;;;;;5054721;28;20037;-60
2022/07/27 07:41:58;;;;;;;3.67;1.10;;;23.00;93.30;;;;;;5053329;28;20285;-60
2022/07/27 07:44:25;;;;;;;;;;;23.10;93.30;;;;;;5053563;28;20028;-61
2022/07/27 07:46:50;;;;;;;3.63;0.77;;;23.20;93.00;;;;;;5053181;28;19914;-60
2022/07/27 07:49:16;;;;;;;1.75;1.08;;;23.40;92.80;;;;;;5053494;28;20409;-60
2022/07/27 07:51:41;;;;;;;;;;;23.20;92.90;;;;;;5054882;28;20419;-61
2022/07/27 07:54:07;;;;;;;3.85;1.13;;;23.30;93.10;;;;;;5054623;28;20358;-60
2022/07/27 07:56:33;;;;;;;;;;;23.50;92.80;;;;;;5054506;28;20029;-61
2022/07/27 07:58:58;;;;;;;2.15;1.08;;;23.40;92.70;;;;;;5053193;28;19904;-60
2022/07/27 08:01:24;;;;;;;2.05;1.25;;;23.50;93.20;;;;;;5053554;28;20032;-61
2022/07/27 08:03:51;;;;;;;0.80;0.60;;;23.50;92.60;;;;;;5053077;28;20389;-61
2022/07/27 08:06:17;;;;;;;2.72;0.98;;;23.50;92.40;;;;;;5053020;28;20037;-60
2022/07/27 08:08:43;;;;;;;4.45;1.08;;;23.70;92.30;;;;;;5052951;28;20029;-60
2022/07/27 08:11:09;;;;;;;;;;;24.30;91.70;;;;;;5079468;22;20143;-61
2022/07/27 08:13:35;;;;;;;2.53;0.90;;;25.70;90.20;;;;;;5054836;28;19905;-61
2022/07/27 08:16:00;;;;;;;1.40;0.90;;;27.20;86.50;;;;;;5054210;28;20021;-59
2022/07/27 08:18:26;;;;;;;3.33;1.30;;;27.20;84.90;;;;;;5051830;28;20020;-59
2022/07/27 08:20:51;;;;;;;3.45;1.10;;;26.80;84.80;;;;;;5052936;28;20025;-60
2022/07/27 08:23:17;;;;;;;1.95;0.82;;;26.30;85.50;;;;;;5052773;28;20330;-60
2022/07/27 08:25:43;;;;;;;2.85;0.85;;;26.20;85.90;;;;;;5053177;28;20041;-57
2022/07/27 08:28:09;;;;;;;2.85;1.30;;;25.90;86.30;;;;;;5053111;28;20543;-59
2022/07/27 08:30:34;;;;;;;1.30;0.77;;;25.70;86.90;;;;;;5052858;28;20026;-59
2022/07/27 08:33:02;;;;;;;1.23;0.80;;;25.80;86.40;;;;;;5053157;28;20496;-60
2022/07/27 08:35:29;;;;;;;3.72;1.33;;;25.80;85.80;;;;;;5053295;28;20473;-60
2022/07/27 08:37:55;;;;;;;1.85;1.13;;;25.20;86.60;;;;;;5053495;28;20028;-58
2022/07/27 08:40:21;;;;;;;;;;;24.70;88.50;;;;;;5052110;28;20397;-60
2022/07/27 08:42:47;;;;;;;1.80;1.20;;;24.40;89.10;;;;;;5051886;28;20333;-59
2022/07/27 08:45:18;;;;;;;1.33;1.08;;;24.40;88.70;;;;;;5053242;28;20024;-60
2022/07/27 08:47:45;;;;;;;3.67;0.93;;;25.30;88.20;;;;;;5052900;28;20036;-59
2022/07/27 08:50:22;;;;;;;1.33;0.90;;;26.80;85.10;;;;;;5052692;28;20493;-60
2022/07/27 08:53:08;;;;;;;2.67;1.20;;;28.80;80.90;;;;;;5051230;28;20104;-59
2022/07/27 08:55:36;;;;;;;1.65;1.05;;;30.80;76.90;;;;;;5052680;28;20438;-59
2022/07/27 08:58:02;;;;;;;5.38;1.00;;;32.10;73.30;;;;;;5052843;28;20181;-59
2022/07/27 09:00:28;;;;;;;2.75;0.80;;;33.60;69.80;;;;;;5052591;28;20060;-59
2022/07/27 09:02:55;;;;;;;2.00;0.90;;;34.20;67.40;;;;;;5052584;28;20029;-60
2022/07/27 09:05:22;;;;;;;1.23;0.90;;;34.50;65.80;;;;;;5052476;28;20057;-60
2022/07/27 09:07:48;;;;;;;2.60;0.90;;;34.90;65.40;;;;;;5052608;28;20095;-60
2022/07/27 09:10:31;;;;;;;7.63;1.30;;;35.70;63.70;;;;;;5052072;28;20129;-57
2022/07/27 09:12:57;;;;;;;4.50;1.13;;;36.10;62.40;;;;;;5055491;28;20481;-59
2022/07/27 09:15:23;;;;;;;2.05;0.90;;;35.40;61.80;;;;;;5056016;28;20024;-60
2022/07/27 09:17:49;;;;;;;2.08;0.80;;;35.30;62.90;;;;;;5056140;28;20385;-60
2022/07/27 09:20:17;;;;;;;2.90;0.93;;;36.10;61.40;;;;;;5056223;28;20105;-59
2022/07/27 09:22:45;;;;;;;1.92;1.05;;;36.30;61.20;;;;;;5056153;28;20103;-58
2022/07/27 09:25:14;;;;;;;4.00;1.15;;;36.40;60.10;;;;;;5055705;28;20025;-63
2022/07/27 09:27:41;;;;;;;4.82;1.10;;;36.50;59.70;;;;;;5055870;28;20040;-60
2022/07/27 09:30:13;;;;;;;3.80;0.98;;;36.30;59.40;;;;;;5055221;28;20371;-58
2022/07/27 09:32:49;;;;;;;1.77;0.88;;;36.40;59.70;;;;;;5055571;28;20366;-58
2022/07/27 09:35:28;;;;;;;2.58;0.93;;;36.70;59.00;;;;;;5053969;28;20025;-57
2022/07/27 09:37:56;;;;;;;2.00;1.17;;;37.20;58.20;;;;;;5055575;28;20473;-61
2022/07/27 09:40:23;;;;;;;4.00;1.10;;;37.70;57.30;;;;;;5055306;28;20029;-60
2022/07/27 09:43:08;;;;;;;1.20;0.90;;;36.50;58.00;;;;;;5055398;28;20457;-61
2022/07/27 09:45:35;;;;;;;1.17;0.73;;;35.10;59.00;;;;;;5055577;28;20483;-61
2022/07/27 09:48:19;;;;;;;3.88;1.02;;;34.80;59.80;;;;;;5055646;28;20028;-59
2022/07/27 09:51:06;;;;;;;2.38;0.98;;;35.80;58.70;;;;;;5054771;28;20021;-60
2022/07/27 09:53:33;;;;;;;3.90;1.02;;;36.10;58.60;;;;;;5055215;28;20031;-59
2022/07/27 09:56:15;;;;;;;1.00;0.70;;;36.90;57.50;;;;;;5055341;28;20021;-61
2022/07/27 09:58:49;;;;;;;1.58;0.90;;;36.90;57.40;;;;;;5055106;28;20049;-61
2022/07/27 10:01:16;;;;;;;1.30;0.90;;;36.60;57.20;;;;;;5055011;28;20029;-61
2022/07/27 10:03:43;;;;;;;3.78;1.10;;;35.80;57.70;;;;;;5054872;28;20036;-59
2022/07/27 10:06:09;;;;;;;3.50;1.20;;;35.20;58.40;;;;;;5055377;28;20104;-60
2022/07/27 10:08:39;;;;;;;4.65;0.90;;;35.40;58.30;;;;;;5053252;28;20473;-60
2022/07/27 10:11:05;;;;;;;5.00;1.35;;;35.20;58.40;;;;;;5054400;28;20374;-60
2022/07/27 10:13:32;;;;;;;3.22;1.17;;;35.10;58.50;;;;;;5054622;28;20104;-60
2022/07/27 10:15:58;;;;;;;1.60;1.10;;;36.00;57.90;;;;;;5054551;28;20031;-59
2022/07/27 10:18:48;;;;;;;2.35;1.08;;;36.40;57.00;;;;;;5054763;28;20021;-60
2022/07/27 10:21:15;;;;;;;2.35;0.93;;;36.70;56.20;;;;;;5053072;28;20087;-59
2022/07/27 10:24:02;;;;;;;2.22;1.05;;;36.40;56.10;;;;;;5054212;28;20021;-59
2022/07/27 10:26:30;;;;;;;2.55;0.93;;;36.40;56.20;;;;;;5055118;28;20068;-60
2022/07/27 10:29:06;;;;;;;1.40;0.90;;;35.60;56.50;;;;;;5054470;28;20024;-60
2022/07/27 10:31:36;;;;;;;3.80;1.15;;;33.90;58.40;;;;;;5057431;28;20028;-61
2022/07/27 10:34:04;;;;;;;4.03;1.33;;;32.30;60.40;;;;;;5058286;28;20049;-59
2022/07/27 10:36:29;;;;;;;4.50;0.93;;;32.40;60.60;;;;;;5056019;28;20033;-59
2022/07/27 10:38:57;;;;;;;2.97;0.82;;;33.40;59.70;;;;;;5054261;28;20047;-57
2022/07/27 10:41:31;;;;;;;3.00;1.08;;;34.00;58.70;;;;;;5055460;28;20031;-60
2022/07/27 10:44:21;;;;;;;3.13;1.00;;;35.10;57.70;;;;;;5055968;28;20086;-60
2022/07/27 10:46:58;;;;;;;1.80;0.88;;;35.40;56.70;;;;;;5055094;28;20029;-58
2022/07/27 10:49:34;;;;;;;4.35;1.13;;;35.60;56.50;;;;;;5054640;28;20088;-60
2022/07/27 10:52:01;;;;;;;4.20;1.00;;;35.90;56.00;;;;;;5055004;28;20028;-60
2022/07/27 10:54:31;;;;;;;1.55;1.00;;;36.60;55.40;;;;;;5054774;28;20014;-61
2022/07/27 10:56:58;;;;;;;2.60;1.30;;;36.90;54.90;;;;;;5054135;28;20112;-60
2022/07/27 10:59:39;;;;;;;2.33;1.10;;;36.80;54.90;;;;;;5054690;28;20037;-58
2022/07/27 11:02:10;;;;;;;2.80;1.02;;;36.20;55.00;;;;;;5054483;28;20029;-59
2022/07/27 11:04:47;;;;;;;1.13;1.02;;;35.20;55.60;;;;;;5053559;28;20112;-59
2022/07/27 11:07:21;;;;;;;2.45;1.08;;;34.70;56.30;;;;;;5053857;28;20025;-60
2022/07/27 11:09:49;;;;;;;3.22;0.90;;;35.10;56.30;;;;;;5053750;28;20036;-61
2022/07/27 11:12:16;;;;;;;4.88;1.35;;;34.40;56.70;;;;;;5053843;28;20032;-59
2022/07/27 11:14:45;;;;;;;4.07;1.50;;;34.10;57.00;;;;;;5054192;28;20049;-60
2022/07/27 11:17:11;;;;;;;3.25;1.13;;;33.30;57.80;;;;;;5052043;28;20036;-62
2022/07/27 11:19:37;;;;;;;3.97;1.20;;;32.20;59.40;;;;;;5053666;28;20029;-59
2022/07/27 11:22:03;;;;;;;4.93;1.10;;;30.70;61.60;;;;;;5053522;28;20033;-59
2022/07/27 11:24:28;;;;;;;4.03;1.40;;;30.10;62.70;;;;;;5053397;28;20108;-59
2022/07/27 11:26:54;;;;;;;11.80;1.40;;;29.70;63.80;;;;;;5053775;28;20033;-59
2022/07/27 11:29:22;;;;;;;3.13;1.00;;;29.20;64.70;;;;;;5051924;28;20082;-60
2022/07/27 11:31:54;;;;;;;4.53;1.10;;;28.90;65.00;;;;;;5052352;28;20039;-59
2022/07/27 11:34:32;;;;;;;4.07;1.58;;;28.00;66.10;;;;;;5053136;28;20028;-58
2022/07/27 11:37:01;;;;;;;2.03;1.02;;;27.50;67.70;;;;;;5052074;28;20025;-59
2022/07/27 11:39:29;;;;;;;4.45;1.40;;;27.30;68.60;;;;;;5053172;28;20485;-60
2022/07/27 11:41:57;;;;;;;4.32;1.30;;;27.40;68.60;;;;;;5053297;28;20033;-61
2022/07/27 11:44:23;;;;;;;5.15;1.02;;;27.10;69.20;;;;;;5053477;28;20462;-59
2022/07/27 11:46:50;;;;;;;2.88;1.30;;;27.10;69.50;;;;;;5053140;28;20033;-59
2022/07/27 11:49:25;;;;;;;5.97;1.40;;;27.20;69.20;;;;;;5053223;28;20095;-59
2022/07/27 11:51:52;;;;;;;2.90;1.25;;;27.10;68.40;;;;;;5053451;28;20059;-58
2022/07/27 11:54:22;;;;;;;4.15;1.52;;;27.10;68.80;;;;;;5052235;28;20028;-61
2022/07/27 11:56:50;;;;;;;3.63;1.75;;;27.10;69.80;;;;;;5053477;28;20020;-59
2022/07/27 11:59:18;;;;;;;7.20;1.60;;;27.00;68.80;;;;;;5054504;28;20048;-60
2022/07/27 12:01:52;;;;;;;3.50;1.50;;;26.70;69.20;;;;;;5053445;28;20104;-58
2022/07/27 12:04:21;;;;;;;3.85;1.50;;;26.50;69.50;;;;;;5053248;28;20025;-59
2022/07/27 12:07:11;;;;;;;5.75;1.60;;;26.60;69.90;;;;;;5053279;28;20017;-59
2022/07/27 12:09:44;;;;;;;3.60;1.38;;;26.60;69.70;;;;;;5052676;28;20040;-59
2022/07/27 12:12:16;;;;;;;3.67;1.17;;;26.60;70.50;;;;;;5053083;28;20466;-59
2022/07/27 12:14:50;;;;;;;3.85;1.38;;;26.70;70.10;;;;;;5052821;28;20033;-60
2022/07/27 12:17:33;;;;;;;5.30;1.60;;;26.80;69.60;;;;;;5052700;28;20100;-58
2022/07/27 12:20:05;;;;;;;3.65;1.52;;;26.90;69.00;;;;;;5052904;28;20103;-58
2022/07/27 12:22:51;;;;;;;3.47;1.13;;;26.90;69.20;;;;;;5053017;28;20079;-62
2022/07/27 12:25:16;;;;;;;3.67;1.60;;;26.90;68.80;;;;;;5052604;28;20503;-59
2022/07/27 12:28:09;;;;;;;4.18;1.33;;;26.90;69.00;;;;;;5051036;28;20108;-59
2022/07/27 12:30:43;;;;;;;3.15;1.63;;;26.90;68.90;;;;;;5051135;28;20120;-61
2022/07/27 12:33:34;;;;;;;2.65;1.30;;;26.70;68.60;;;;;;5053087;28;20021;-56
2022/07/27 12:36:01;;;;;;;2.38;1.20;;;26.50;68.50;;;;;;5053498;28;20373;-60
2022/07/27 12:38:57;;;;;;;5.57;1.50;;;26.60;69.70;;;;;;5052504;28;20071;-59
2022/07/27 12:41:28;;;;;;;5.15;1.50;;;26.80;68.40;;;;;;5044185;28;20033;-59
2022/07/27 12:44:09;;;;;;;3.65;1.40;;;27.10;68.20;;;;;;5052772;28;20148;-60
2022/07/27 12:46:55;;;;;;;2.85;1.38;;;27.20;67.90;;;;;;5055581;28;20420;-59
2022/07/27 12:49:24;;;;;;;4.20;1.30;;;27.20;67.60;;;;;;5056017;28;20486;-59
2022/07/27 12:51:50;;;;;;;2.97;1.63;;;27.20;67.60;;;;;;5056222;28;20025;-60
2022/07/27 12:54:16;;;;;;;3.65;1.40;;;27.20;67.70;;;;;;5055568;28;20477;-58
2022/07/27 12:56:42;;;;;;;3.97;1.75;;;27.10;67.30;;;;;;5057350;28;20023;-57
2022/07/27 12:59:08;;;;;;;5.88;1.55;;;27.10;67.20;;;;;;5056985;28;20048;-59